sensor_id;sensor_type;location;lat;lon;timestamp;P1;durP1;ratioP1;P2;durP2;ratioP2
40012;SDS011;37387;42.672;23.334;2022-10-31T00:01:35;6.1;;;2.6;;
40012;SDS011;37387;42.672;23.334;2022-10-31T00:02:34;6.1;;;2.9;;
40012;SDS011;37387;42.672;23.334;2022-10-31T00:03:34;5.4;;;2.5;;
40012;SDS011;37387;42.672;23.334;2022-10-31T00:04:34;5.3;;;2.0;;
40012;SDS011;37387;42.672;23.334;2022-10-31T00:05:34;5.1;;;2.5;;
40012;SDS011;37387;42.672;23.334;2022-10-31T00:06:34;6.5;;;2.7;;
40012;SDS011;37387;42.672;23.334;2022-10-31T00:07:34;6.5;;;2.6;;
40012;SDS011;37387;42.672;23.334;2022-10-31T00:08:34;4.9;;;2.9;;
40012;SDS011;37387;42.672;23.334;2022-10-31T00:09:34;7.2;;;2.4;;
40012;SDS011;37387;42.672;23.334;2022-10-31T00:11:34;4.6;;;2.6;;
40012;SDS011;37387;42.672;23.334;2022-10-31T00:13:34;5.8;;;2.8;;
40012;SDS011;37387;42.672;23.334;2022-10-31T00:15:35;4.8;;;2.2;;
40012;SDS011;37387;42.672;23.334;2022-10-31T00:17:35;3.7;;;2.8;;
40012;SDS011;37387;42.672;23.334;2022-10-31T00:18:35;6.9;;;2.7;;
40012;SDS011;37387;42.672;23.334;2022-10-31T00:19:35;4.6;;;2.3;;
40012;SDS011;37387;42.672;23.334;2022-10-31T00:20:35;4.1;;;2.4;;
40012;SDS011;37387;42.672;23.334;2022-10-31T00:21:35;3.7;;;3.3;;
40012;SDS011;37387;42.672;23.334;2022-10-31T00:22:35;5.5;;;4.5;;
40012;SDS011;37387;42.672;23.334;2022-10-31T00:23:35;10.9;;;2.6;;
40012;SDS011;37387;42.672;23.334;2022-10-31T00:24:35;6.1;;;2.5;;
40012;SDS011;37387;42.672;23.334;2022-10-31T00:25:36;7.0;;;2.3;;
40012;SDS011;37387;42.672;23.334;2022-10-31T00:26:35;5.6;;;2.6;;
40012;SDS011;37387;42.672;23.334;2022-10-31T00:27:35;6.7;;;2.4;;
40012;SDS011;37387;42.672;23.334;2022-10-31T00:28:35;6.7;;;2.6;;
40012;SDS011;37387;42.672;23.334;2022-10-31T00:29:35;5.6;;;2.1;;
40012;SDS011;37387;42.672;23.334;2022-10-31T00:30:35;4.3;;;2.4;;
40012;SDS011;37387;42.672;23.334;2022-10-31T00:32:35;3.7;;;2.5;;
40012;SDS011;37387;42.672;23.334;2022-10-31T00:33:36;4.4;;;2.4;;
40012;SDS011;37387;42.672;23.334;2022-10-31T00:34:35;4.4;;;2.3;;
40012;SDS011;37387;42.672;23.334;2022-10-31T00:35:35;4.3;;;2.8;;
40012;SDS011;37387;42.672;23.334;2022-10-31T00:36:35;5.7;;;2.4;;
40012;SDS011;37387;42.672;23.334;2022-10-31T00:37:35;4.5;;;2.6;;
40012;SDS011;37387;42.672;23.334;2022-10-31T00:38:35;6.2;;;2.5;;
40012;SDS011;37387;42.672;23.334;2022-10-31T00:39:35;5.6;;;2.4;;
40012;SDS011;37387;42.672;23.334;2022-10-31T00:40:35;3.6;;;2.6;;
40012;SDS011;37387;42.672;23.334;2022-10-31T00:41:35;4.0;;;2.4;;
40012;SDS011;37387;42.672;23.334;2022-10-31T00:42:35;4.6;;;2.2;;
40012;SDS011;37387;42.672;23.334;2022-10-31T00:43:35;4.6;;;2.6;;
40012;SDS011;37387;42.672;23.334;2022-10-31T00:44:35;4.0;;;2.5;;
40012;SDS011;37387;42.672;23.334;2022-10-31T00:45:35;4.9;;;2.7;;
40012;SDS011;37387;42.672;23.334;2022-10-31T00:47:36;7.2;;;3.0;;
40012;SDS011;37387;42.672;23.334;2022-10-31T00:48:36;6.9;;;3.1;;
40012;SDS011;37387;42.672;23.334;2022-10-31T00:49:36;6.0;;;2.6;;
40012;SDS011;37387;42.672;23.334;2022-10-31T00:50:36;4.9;;;2.8;;
40012;SDS011;37387;42.672;23.334;2022-10-31T00:52:36;6.4;;;2.3;;
40012;SDS011;37387;42.672;23.334;2022-10-31T00:53:36;6.4;;;2.7;;
40012;SDS011;37387;42.672;23.334;2022-10-31T00:54:36;5.5;;;2.8;;
40012;SDS011;37387;42.672;23.334;2022-10-31T00:56:36;5.9;;;3.1;;
40012;SDS011;37387;42.672;23.334;2022-10-31T00:57:36;5.5;;;2.7;;
40012;SDS011;37387;42.672;23.334;2022-10-31T00:58:36;5.5;;;2.4;;
40012;SDS011;37387;42.672;23.334;2022-10-31T00:59:36;5.0;;;2.6;;
40012;SDS011;37387;42.672;23.334;2022-10-31T01:00:36;6.8;;;2.5;;
40012;SDS011;37387;42.672;23.334;2022-10-31T01:02:36;7.1;;;2.2;;
40012;SDS011;37387;42.672;23.334;2022-10-31T01:03:36;3.2;;;2.6;;
40012;SDS011;37387;42.672;23.334;2022-10-31T01:04:36;5.0;;;2.8;;
40012;SDS011;37387;42.672;23.334;2022-10-31T01:05:36;5.8;;;3.1;;
40012;SDS011;37387;42.672;23.334;2022-10-31T01:06:36;4.2;;;2.5;;
40012;SDS011;37387;42.672;23.334;2022-10-31T01:07:37;4.2;;;2.7;;
40012;SDS011;37387;42.672;23.334;2022-10-31T01:08:36;6.5;;;2.4;;
40012;SDS011;37387;42.672;23.334;2022-10-31T01:09:36;6.5;;;2.3;;
40012;SDS011;37387;42.672;23.334;2022-10-31T01:11:36;4.3;;;2.5;;
40012;SDS011;37387;42.672;23.334;2022-10-31T01:12:36;5.5;;;2.7;;
40012;SDS011;37387;42.672;23.334;2022-10-31T01:13:36;4.6;;;2.5;;
40012;SDS011;37387;42.672;23.334;2022-10-31T01:14:36;6.4;;;2.0;;
40012;SDS011;37387;42.672;23.334;2022-10-31T01:15:36;4.4;;;2.5;;
40012;SDS011;37387;42.672;23.334;2022-10-31T01:16:36;6.4;;;2.7;;
40012;SDS011;37387;42.672;23.334;2022-10-31T01:17:36;4.2;;;2.5;;
40012;SDS011;37387;42.672;23.334;2022-10-31T01:20:36;4.3;;;2.4;;
40012;SDS011;37387;42.672;23.334;2022-10-31T01:21:36;4.8;;;2.3;;
40012;SDS011;37387;42.672;23.334;2022-10-31T01:22:36;5.2;;;2.2;;
40012;SDS011;37387;42.672;23.334;2022-10-31T01:23:36;5.8;;;2.6;;
40012;SDS011;37387;42.672;23.334;2022-10-31T01:24:36;4.5;;;2.5;;
40012;SDS011;37387;42.672;23.334;2022-10-31T01:25:36;4.5;;;2.6;;
40012;SDS011;37387;42.672;23.334;2022-10-31T01:26:36;5.5;;;2.4;;
40012;SDS011;37387;42.672;23.334;2022-10-31T01:28:37;4.8;;;3.0;;
40012;SDS011;37387;42.672;23.334;2022-10-31T01:29:37;7.0;;;2.6;;
40012;SDS011;37387;42.672;23.334;2022-10-31T01:30:37;6.5;;;2.7;;
40012;SDS011;37387;42.672;23.334;2022-10-31T01:31:37;7.5;;;2.6;;
40012;SDS011;37387;42.672;23.334;2022-10-31T01:32:37;5.0;;;2.7;;
40012;SDS011;37387;42.672;23.334;2022-10-31T01:33:37;4.6;;;2.4;;
40012;SDS011;37387;42.672;23.334;2022-10-31T01:34:37;4.7;;;2.5;;
40012;SDS011;37387;42.672;23.334;2022-10-31T01:35:37;4.6;;;2.8;;
40012;SDS011;37387;42.672;23.334;2022-10-31T01:36:37;4.6;;;2.9;;
40012;SDS011;37387;42.672;23.334;2022-10-31T01:37:37;5.2;;;2.4;;
40012;SDS011;37387;42.672;23.334;2022-10-31T01:40:37;3.3;;;2.5;;
40012;SDS011;37387;42.672;23.334;2022-10-31T01:41:38;5.6;;;2.8;;
40012;SDS011;37387;42.672;23.334;2022-10-31T01:42:37;5.6;;;2.4;;
40012;SDS011;37387;42.672;23.334;2022-10-31T01:46:37;4.8;;;2.8;;
40012;SDS011;37387;42.672;23.334;2022-10-31T01:47:38;5.2;;;2.6;;
40012;SDS011;37387;42.672;23.334;2022-10-31T01:48:37;4.1;;;2.5;;
40012;SDS011;37387;42.672;23.334;2022-10-31T01:50:37;6.7;;;2.9;;
40012;SDS011;37387;42.672;23.334;2022-10-31T01:51:38;7.3;;;2.7;;
40012;SDS011;37387;42.672;23.334;2022-10-31T01:52:37;7.1;;;2.5;;
40012;SDS011;37387;42.672;23.334;2022-10-31T01:53:37;7.1;;;2.9;;
40012;SDS011;37387;42.672;23.334;2022-10-31T01:55:38;7.7;;;3.2;;
40012;SDS011;37387;42.672;23.334;2022-10-31T01:56:39;5.2;;;3.0;;
40012;SDS011;37387;42.672;23.334;2022-10-31T01:57:37;5.2;;;2.7;;
40012;SDS011;37387;42.672;23.334;2022-10-31T01:58:37;4.9;;;3.2;;
40012;SDS011;37387;42.672;23.334;2022-10-31T01:59:38;6.3;;;2.9;;
40012;SDS011;37387;42.672;23.334;2022-10-31T02:00:37;5.8;;;2.7;;
40012;SDS011;37387;42.672;23.334;2022-10-31T02:01:37;6.8;;;2.9;;
40012;SDS011;37387;42.672;23.334;2022-10-31T02:02:37;6.8;;;3.0;;
40012;SDS011;37387;42.672;23.334;2022-10-31T02:05:37;5.2;;;2.9;;
40012;SDS011;37387;42.672;23.334;2022-10-31T02:06:38;8.3;;;3.2;;
40012;SDS011;37387;42.672;23.334;2022-10-31T02:07:38;8.3;;;2.8;;
40012;SDS011;37387;42.672;23.334;2022-10-31T02:08:37;5.9;;;3.1;;
40012;SDS011;37387;42.672;23.334;2022-10-31T02:09:38;6.1;;;3.3;;
40012;SDS011;37387;42.672;23.334;2022-10-31T02:10:38;5.4;;;3.0;;
40012;SDS011;37387;42.672;23.334;2022-10-31T02:12:38;7.0;;;2.9;;
40012;SDS011;37387;42.672;23.334;2022-10-31T02:13:38;7.0;;;3.2;;
40012;SDS011;37387;42.672;23.334;2022-10-31T02:14:38;5.7;;;3.1;;
40012;SDS011;37387;42.672;23.334;2022-10-31T02:16:38;6.1;;;3.0;;
40012;SDS011;37387;42.672;23.334;2022-10-31T02:17:38;6.8;;;3.5;;
40012;SDS011;37387;42.672;23.334;2022-10-31T02:18:38;7.4;;;2.6;;
40012;SDS011;37387;42.672;23.334;2022-10-31T02:19:39;8.4;;;2.8;;
40012;SDS011;37387;42.672;23.334;2022-10-31T02:20:40;6.8;;;3.1;;
40012;SDS011;37387;42.672;23.334;2022-10-31T02:22:40;4.9;;;2.9;;
40012;SDS011;37387;42.672;23.334;2022-10-31T02:23:44;5.0;;;3.1;;
40012;SDS011;37387;42.672;23.334;2022-10-31T02:24:44;5.3;;;2.9;;
40012;SDS011;37387;42.672;23.334;2022-10-31T02:25:42;5.8;;;3.1;;
40012;SDS011;37387;42.672;23.334;2022-10-31T02:26:43;5.7;;;3.3;;
40012;SDS011;37387;42.672;23.334;2022-10-31T02:27:42;7.9;;;3.0;;
40012;SDS011;37387;42.672;23.334;2022-10-31T02:28:43;7.9;;;3.2;;
40012;SDS011;37387;42.672;23.334;2022-10-31T02:30:40;4.9;;;3.3;;
40012;SDS011;37387;42.672;23.334;2022-10-31T02:31:39;5.5;;;3.1;;
40012;SDS011;37387;42.672;23.334;2022-10-31T02:33:39;5.2;;;3.2;;
40012;SDS011;37387;42.672;23.334;2022-10-31T02:34:40;5.6;;;3.4;;
40012;SDS011;37387;42.672;23.334;2022-10-31T02:35:41;7.8;;;3.1;;
40012;SDS011;37387;42.672;23.334;2022-10-31T02:37:40;6.5;;;3.2;;
40012;SDS011;37387;42.672;23.334;2022-10-31T02:38:42;9.3;;;3.7;;
40012;SDS011;37387;42.672;23.334;2022-10-31T02:39:40;4.8;;;2.9;;
40012;SDS011;37387;42.672;23.334;2022-10-31T02:40:39;4.8;;;3.5;;
40012;SDS011;37387;42.672;23.334;2022-10-31T02:41:41;6.2;;;3.2;;
40012;SDS011;37387;42.672;23.334;2022-10-31T02:42:39;5.9;;;3.3;;
40012;SDS011;37387;42.672;23.334;2022-10-31T02:44:39;7.3;;;3.4;;
40012;SDS011;37387;42.672;23.334;2022-10-31T02:46:39;5.0;;;3.6;;
40012;SDS011;37387;42.672;23.334;2022-10-31T02:47:39;5.1;;;3.5;;
40012;SDS011;37387;42.672;23.334;2022-10-31T02:48:39;5.1;;;3.6;;
40012;SDS011;37387;42.672;23.334;2022-10-31T02:49:40;6.4;;;3.0;;
40012;SDS011;37387;42.672;23.334;2022-10-31T02:50:39;4.6;;;3.7;;
40012;SDS011;37387;42.672;23.334;2022-10-31T02:52:39;8.0;;;3.3;;
40012;SDS011;37387;42.672;23.334;2022-10-31T02:53:39;7.1;;;4.1;;
40012;SDS011;37387;42.672;23.334;2022-10-31T02:54:45;7.6;;;4.0;;
40012;SDS011;37387;42.672;23.334;2022-10-31T02:55:44;7.6;;;3.7;;
40012;SDS011;37387;42.672;23.334;2022-10-31T02:58:40;7.2;;;3.3;;
40012;SDS011;37387;42.672;23.334;2022-10-31T02:59:39;8.1;;;3.8;;
40012;SDS011;37387;42.672;23.334;2022-10-31T03:00:41;8.1;;;4.0;;
40012;SDS011;37387;42.672;23.334;2022-10-31T03:01:43;6.9;;;3.7;;
40012;SDS011;37387;42.672;23.334;2022-10-31T03:02:39;6.2;;;3.9;;
40012;SDS011;37387;42.672;23.334;2022-10-31T03:05:40;7.9;;;3.7;;
40012;SDS011;37387;42.672;23.334;2022-10-31T03:07:41;7.2;;;3.6;;
40012;SDS011;37387;42.672;23.334;2022-10-31T03:08:41;8.4;;;4.0;;
40012;SDS011;37387;42.672;23.334;2022-10-31T03:09:40;8.4;;;4.2;;
40012;SDS011;37387;42.672;23.334;2022-10-31T03:10:40;6.2;;;3.6;;
40012;SDS011;37387;42.672;23.334;2022-10-31T03:11:40;7.4;;;3.8;;
40012;SDS011;37387;42.672;23.334;2022-10-31T03:13:40;8.8;;;3.5;;
40012;SDS011;37387;42.672;23.334;2022-10-31T03:14:41;8.8;;;3.9;;
40012;SDS011;37387;42.672;23.334;2022-10-31T03:15:40;7.9;;;3.8;;
40012;SDS011;37387;42.672;23.334;2022-10-31T03:16:40;8.5;;;3.4;;
40012;SDS011;37387;42.672;23.334;2022-10-31T03:17:42;5.7;;;3.9;;
40012;SDS011;37387;42.672;23.334;2022-10-31T03:18:39;7.5;;;3.8;;
40012;SDS011;37387;42.672;23.334;2022-10-31T03:19:41;7.6;;;3.9;;
40012;SDS011;37387;42.672;23.334;2022-10-31T03:20:40;5.9;;;3.8;;
40012;SDS011;37387;42.672;23.334;2022-10-31T03:21:40;7.6;;;4.2;;
40012;SDS011;37387;42.672;23.334;2022-10-31T03:22:39;8.4;;;4.4;;
40012;SDS011;37387;42.672;23.334;2022-10-31T03:24:39;8.8;;;4.1;;
40012;SDS011;37387;42.672;23.334;2022-10-31T03:25:39;7.0;;;3.7;;
40012;SDS011;37387;42.672;23.334;2022-10-31T03:26:40;6.5;;;4.3;;
40012;SDS011;37387;42.672;23.334;2022-10-31T03:27:39;7.3;;;4.0;;
40012;SDS011;37387;42.672;23.334;2022-10-31T03:28:49;8.1;;;4.5;;
40012;SDS011;37387;42.672;23.334;2022-10-31T03:29:39;8.1;;;4.1;;
40012;SDS011;37387;42.672;23.334;2022-10-31T03:30:40;8.9;;;4.3;;
40012;SDS011;37387;42.672;23.334;2022-10-31T03:31:43;7.3;;;3.8;;
40012;SDS011;37387;42.672;23.334;2022-10-31T03:32:40;8.0;;;4.2;;
40012;SDS011;37387;42.672;23.334;2022-10-31T03:33:39;9.9;;;5.1;;
40012;SDS011;37387;42.672;23.334;2022-10-31T03:34:40;9.1;;;4.1;;
40012;SDS011;37387;42.672;23.334;2022-10-31T03:35:40;9.2;;;4.8;;
40012;SDS011;37387;42.672;23.334;2022-10-31T03:36:40;9.2;;;5.0;;
40012;SDS011;37387;42.672;23.334;2022-10-31T03:37:39;9.2;;;4.5;;
40012;SDS011;37387;42.672;23.334;2022-10-31T03:38:40;9.2;;;4.4;;
40012;SDS011;37387;42.672;23.334;2022-10-31T03:39:40;8.5;;;4.5;;
40012;SDS011;37387;42.672;23.334;2022-10-31T03:40:40;7.7;;;4.3;;
40012;SDS011;37387;42.672;23.334;2022-10-31T03:41:40;7.7;;;4.4;;
40012;SDS011;37387;42.672;23.334;2022-10-31T03:42:40;8.4;;;3.8;;
40012;SDS011;37387;42.672;23.334;2022-10-31T03:43:40;7.2;;;4.3;;
40012;SDS011;37387;42.672;23.334;2022-10-31T03:44:41;11.3;;;4.4;;
40012;SDS011;37387;42.672;23.334;2022-10-31T03:45:41;8.7;;;4.5;;
40012;SDS011;37387;42.672;23.334;2022-10-31T03:46:40;8.5;;;4.6;;
40012;SDS011;37387;42.672;23.334;2022-10-31T03:48:40;8.1;;;4.4;;
40012;SDS011;37387;42.672;23.334;2022-10-31T03:49:40;8.1;;;4.6;;
40012;SDS011;37387;42.672;23.334;2022-10-31T03:50:40;9.6;;;4.1;;
40012;SDS011;37387;42.672;23.334;2022-10-31T03:51:42;9.6;;;4.6;;
40012;SDS011;37387;42.672;23.334;2022-10-31T03:52:41;12.6;;;4.5;;
40012;SDS011;37387;42.672;23.334;2022-10-31T03:53:40;9.1;;;4.7;;
40012;SDS011;37387;42.672;23.334;2022-10-31T03:54:40;8.3;;;4.8;;
40012;SDS011;37387;42.672;23.334;2022-10-31T03:55:40;11.1;;;4.6;;
40012;SDS011;37387;42.672;23.334;2022-10-31T03:56:42;11.1;;;4.7;;
40012;SDS011;37387;42.672;23.334;2022-10-31T03:57:41;7.9;;;4.9;;
40012;SDS011;37387;42.672;23.334;2022-10-31T03:58:42;9.9;;;5.1;;
40012;SDS011;37387;42.672;23.334;2022-10-31T03:59:40;8.6;;;6.0;;
40012;SDS011;37387;42.672;23.334;2022-10-31T04:00:40;8.3;;;5.3;;
40012;SDS011;37387;42.672;23.334;2022-10-31T04:01:41;8.3;;;5.7;;
40012;SDS011;37387;42.672;23.334;2022-10-31T04:02:40;10.7;;;5.6;;
40012;SDS011;37387;42.672;23.334;2022-10-31T04:03:40;10.1;;;5.2;;
40012;SDS011;37387;42.672;23.334;2022-10-31T04:04:40;8.3;;;6.0;;
40012;SDS011;37387;42.672;23.334;2022-10-31T04:05:40;10.5;;;5.8;;
40012;SDS011;37387;42.672;23.334;2022-10-31T04:06:40;8.9;;;5.0;;
40012;SDS011;37387;42.672;23.334;2022-10-31T04:07:41;10.1;;;5.5;;
40012;SDS011;37387;42.672;23.334;2022-10-31T04:08:41;8.8;;;5.3;;
40012;SDS011;37387;42.672;23.334;2022-10-31T04:09:41;11.3;;;5.4;;
40012;SDS011;37387;42.672;23.334;2022-10-31T04:10:40;11.3;;;5.6;;
40012;SDS011;37387;42.672;23.334;2022-10-31T04:11:40;10.1;;;5.5;;
40012;SDS011;37387;42.672;23.334;2022-10-31T04:12:40;12.6;;;5.9;;
40012;SDS011;37387;42.672;23.334;2022-10-31T04:13:40;11.6;;;5.7;;
40012;SDS011;37387;42.672;23.334;2022-10-31T04:14:40;10.1;;;6.1;;
40012;SDS011;37387;42.672;23.334;2022-10-31T04:15:40;10.1;;;5.1;;
40012;SDS011;37387;42.672;23.334;2022-10-31T04:16:40;10.7;;;5.3;;
40012;SDS011;37387;42.672;23.334;2022-10-31T04:17:40;10.7;;;5.4;;
40012;SDS011;37387;42.672;23.334;2022-10-31T04:18:40;10.7;;;5.6;;
40012;SDS011;37387;42.672;23.334;2022-10-31T04:19:40;11.9;;;5.9;;
40012;SDS011;37387;42.672;23.334;2022-10-31T04:21:40;11.3;;;6.1;;
40012;SDS011;37387;42.672;23.334;2022-10-31T04:22:40;11.3;;;5.7;;
40012;SDS011;37387;42.672;23.334;2022-10-31T04:23:40;12.1;;;6.3;;
40012;SDS011;37387;42.672;23.334;2022-10-31T04:24:40;10.2;;;6.9;;
40012;SDS011;37387;42.672;23.334;2022-10-31T04:25:40;12.8;;;7.1;;
40012;SDS011;37387;42.672;23.334;2022-10-31T04:26:40;12.8;;;6.5;;
40012;SDS011;37387;42.672;23.334;2022-10-31T04:27:40;11.9;;;6.0;;
40012;SDS011;37387;42.672;23.334;2022-10-31T04:29:40;10.0;;;6.2;;
40012;SDS011;37387;42.672;23.334;2022-10-31T04:30:40;10.3;;;6.1;;
40012;SDS011;37387;42.672;23.334;2022-10-31T04:31:40;10.3;;;6.2;;
40012;SDS011;37387;42.672;23.334;2022-10-31T04:32:40;12.6;;;5.7;;
40012;SDS011;37387;42.672;23.334;2022-10-31T04:33:40;9.5;;;5.8;;
40012;SDS011;37387;42.672;23.334;2022-10-31T04:35:40;10.9;;;5.9;;
40012;SDS011;37387;42.672;23.334;2022-10-31T04:36:40;10.9;;;6.1;;
40012;SDS011;37387;42.672;23.334;2022-10-31T04:37:40;12.0;;;6.0;;
40012;SDS011;37387;42.672;23.334;2022-10-31T04:38:40;12.0;;;5.7;;
40012;SDS011;37387;42.672;23.334;2022-10-31T04:39:40;8.8;;;5.3;;
40012;SDS011;37387;42.672;23.334;2022-10-31T04:40:40;11.8;;;6.5;;
40012;SDS011;37387;42.672;23.334;2022-10-31T04:41:40;11.8;;;5.6;;
40012;SDS011;37387;42.672;23.334;2022-10-31T04:43:40;12.1;;;5.5;;
40012;SDS011;37387;42.672;23.334;2022-10-31T04:44:40;10.0;;;6.2;;
40012;SDS011;37387;42.672;23.334;2022-10-31T04:45:40;10.0;;;5.8;;
40012;SDS011;37387;42.672;23.334;2022-10-31T04:46:40;11.7;;;6.2;;
40012;SDS011;37387;42.672;23.334;2022-10-31T04:47:40;11.7;;;7.3;;
40012;SDS011;37387;42.672;23.334;2022-10-31T04:48:40;68.6;;;31.7;;
40012;SDS011;37387;42.672;23.334;2022-10-31T04:49:40;68.6;;;25.0;;
40012;SDS011;37387;42.672;23.334;2022-10-31T04:50:40;49.2;;;8.7;;
40012;SDS011;37387;42.672;23.334;2022-10-31T04:51:40;17.0;;;6.5;;
40012;SDS011;37387;42.672;23.334;2022-10-31T04:52:40;13.0;;;6.1;;
40012;SDS011;37387;42.672;23.334;2022-10-31T04:53:40;13.0;;;5.4;;
40012;SDS011;37387;42.672;23.334;2022-10-31T04:54:40;10.3;;;5.7;;
40012;SDS011;37387;42.672;23.334;2022-10-31T04:55:40;10.5;;;5.4;;
40012;SDS011;37387;42.672;23.334;2022-10-31T04:56:40;8.8;;;6.3;;
40012;SDS011;37387;42.672;23.334;2022-10-31T04:57:40;12.7;;;5.9;;
40012;SDS011;37387;42.672;23.334;2022-10-31T04:59:40;14.5;;;5.8;;
40012;SDS011;37387;42.672;23.334;2022-10-31T05:00:40;11.2;;;5.9;;
40012;SDS011;37387;42.672;23.334;2022-10-31T05:01:40;12.3;;;6.8;;
40012;SDS011;37387;42.672;23.334;2022-10-31T05:02:43;12.3;;;5.8;;
40012;SDS011;37387;42.672;23.334;2022-10-31T05:03:40;11.4;;;5.7;;
40012;SDS011;37387;42.672;23.334;2022-10-31T05:04:40;12.7;;;6.1;;
40012;SDS011;37387;42.672;23.334;2022-10-31T05:05:41;10.5;;;6.3;;
40012;SDS011;37387;42.672;23.334;2022-10-31T05:07:41;11.3;;;5.6;;
40012;SDS011;37387;42.672;23.334;2022-10-31T05:08:40;9.9;;;6.3;;
40012;SDS011;37387;42.672;23.334;2022-10-31T05:09:40;10.8;;;6.1;;
40012;SDS011;37387;42.672;23.334;2022-10-31T05:10:40;11.0;;;6.7;;
40012;SDS011;37387;42.672;23.334;2022-10-31T05:11:40;14.8;;;6.9;;
40012;SDS011;37387;42.672;23.334;2022-10-31T05:12:45;14.8;;;7.2;;
40012;SDS011;37387;42.672;23.334;2022-10-31T05:13:40;13.5;;;6.6;;
40012;SDS011;37387;42.672;23.334;2022-10-31T05:14:40;13.5;;;6.7;;
40012;SDS011;37387;42.672;23.334;2022-10-31T05:15:40;13.3;;;6.4;;
40012;SDS011;37387;42.672;23.334;2022-10-31T05:16:40;12.6;;;6.5;;
40012;SDS011;37387;42.672;23.334;2022-10-31T05:17:40;11.9;;;6.4;;
40012;SDS011;37387;42.672;23.334;2022-10-31T05:18:40;12.0;;;6.0;;
40012;SDS011;37387;42.672;23.334;2022-10-31T05:19:40;11.6;;;6.2;;
40012;SDS011;37387;42.672;23.334;2022-10-31T05:21:40;13.1;;;6.5;;
40012;SDS011;37387;42.672;23.334;2022-10-31T05:22:41;15.2;;;6.3;;
40012;SDS011;37387;42.672;23.334;2022-10-31T05:23:40;11.8;;;6.2;;
40012;SDS011;37387;42.672;23.334;2022-10-31T05:24:40;11.8;;;6.5;;
40012;SDS011;37387;42.672;23.334;2022-10-31T05:25:40;16.5;;;7.2;;
40012;SDS011;37387;42.672;23.334;2022-10-31T05:26:40;16.5;;;7.7;;
40012;SDS011;37387;42.672;23.334;2022-10-31T05:27:41;16.4;;;7.9;;
40012;SDS011;37387;42.672;23.334;2022-10-31T05:28:41;16.4;;;8.8;;
40012;SDS011;37387;42.672;23.334;2022-10-31T05:29:41;15.5;;;8.5;;
40012;SDS011;37387;42.672;23.334;2022-10-31T05:30:41;15.2;;;8.2;;
40012;SDS011;37387;42.672;23.334;2022-10-31T05:31:41;13.6;;;7.6;;
40012;SDS011;37387;42.672;23.334;2022-10-31T05:33:41;14.5;;;7.3;;
40012;SDS011;37387;42.672;23.334;2022-10-31T05:34:41;14.1;;;7.6;;
40012;SDS011;37387;42.672;23.334;2022-10-31T05:35:41;15.4;;;8.5;;
40012;SDS011;37387;42.672;23.334;2022-10-31T05:36:41;15.0;;;8.4;;
40012;SDS011;37387;42.672;23.334;2022-10-31T05:37:41;16.7;;;9.5;;
40012;SDS011;37387;42.672;23.334;2022-10-31T05:38:41;20.9;;;9.3;;
40012;SDS011;37387;42.672;23.334;2022-10-31T05:39:41;17.0;;;7.9;;
40012;SDS011;37387;42.672;23.334;2022-10-31T05:40:41;15.9;;;7.8;;
40012;SDS011;37387;42.672;23.334;2022-10-31T05:41:41;15.1;;;7.5;;
40012;SDS011;37387;42.672;23.334;2022-10-31T05:42:41;14.6;;;7.3;;
40012;SDS011;37387;42.672;23.334;2022-10-31T05:43:41;14.6;;;8.4;;
40012;SDS011;37387;42.672;23.334;2022-10-31T05:44:41;16.3;;;33.2;;
40012;SDS011;37387;42.672;23.334;2022-10-31T05:45:41;67.5;;;24.1;;
40012;SDS011;37387;42.672;23.334;2022-10-31T05:46:41;50.5;;;8.1;;
40012;SDS011;37387;42.672;23.334;2022-10-31T05:47:41;15.4;;;8.0;;
40012;SDS011;37387;42.672;23.334;2022-10-31T05:48:41;13.2;;;15.8;;
40012;SDS011;37387;42.672;23.334;2022-10-31T05:49:41;29.5;;;22.2;;
40012;SDS011;37387;42.672;23.334;2022-10-31T05:50:41;25.9;;;14.1;;
40012;SDS011;37387;42.672;23.334;2022-10-31T05:51:41;25.9;;;7.4;;
40012;SDS011;37387;42.672;23.334;2022-10-31T05:52:41;11.0;;;8.0;;
40012;SDS011;37387;42.672;23.334;2022-10-31T05:53:41;15.1;;;9.2;;
40012;SDS011;37387;42.672;23.334;2022-10-31T05:54:41;14.4;;;8.4;;
40012;SDS011;37387;42.672;23.334;2022-10-31T05:55:41;17.5;;;7.6;;
40012;SDS011;37387;42.672;23.334;2022-10-31T05:57:41;12.6;;;7.5;;
40012;SDS011;37387;42.672;23.334;2022-10-31T05:58:41;12.6;;;7.6;;
40012;SDS011;37387;42.672;23.334;2022-10-31T05:59:41;13.4;;;6.7;;
40012;SDS011;37387;42.672;23.334;2022-10-31T06:00:41;13.4;;;6.8;;
40012;SDS011;37387;42.672;23.334;2022-10-31T06:01:41;13.1;;;7.2;;
40012;SDS011;37387;42.672;23.334;2022-10-31T06:02:41;11.6;;;6.5;;
40012;SDS011;37387;42.672;23.334;2022-10-31T06:03:41;11.6;;;7.4;;
40012;SDS011;37387;42.672;23.334;2022-10-31T06:04:41;17.5;;;7.1;;
40012;SDS011;37387;42.672;23.334;2022-10-31T06:06:42;12.5;;;6.9;;
40012;SDS011;37387;42.672;23.334;2022-10-31T06:07:42;12.5;;;7.1;;
40012;SDS011;37387;42.672;23.334;2022-10-31T06:08:42;16.3;;;7.5;;
40012;SDS011;37387;42.672;23.334;2022-10-31T06:09:42;16.1;;;7.2;;
40012;SDS011;37387;42.672;23.334;2022-10-31T06:10:42;14.2;;;6.8;;
40012;SDS011;37387;42.672;23.334;2022-10-31T06:11:42;15.4;;;7.7;;
40012;SDS011;37387;42.672;23.334;2022-10-31T06:12:42;12.7;;;7.1;;
40012;SDS011;37387;42.672;23.334;2022-10-31T06:13:42;12.7;;;7.3;;
40012;SDS011;37387;42.672;23.334;2022-10-31T06:14:42;14.5;;;6.9;;
40012;SDS011;37387;42.672;23.334;2022-10-31T06:16:42;14.6;;;7.2;;
40012;SDS011;37387;42.672;23.334;2022-10-31T06:17:43;13.4;;;6.9;;
40012;SDS011;37387;42.672;23.334;2022-10-31T06:18:43;12.6;;;6.8;;
40012;SDS011;37387;42.672;23.334;2022-10-31T06:19:43;11.2;;;6.9;;
40012;SDS011;37387;42.672;23.334;2022-10-31T06:20:43;13.7;;;7.2;;
40012;SDS011;37387;42.672;23.334;2022-10-31T06:21:43;15.7;;;6.7;;
40012;SDS011;37387;42.672;23.334;2022-10-31T06:22:43;11.6;;;7.5;;
40012;SDS011;37387;42.672;23.334;2022-10-31T06:23:43;12.0;;;6.9;;
40012;SDS011;37387;42.672;23.334;2022-10-31T06:24:43;10.5;;;6.5;;
40012;SDS011;37387;42.672;23.334;2022-10-31T06:25:47;10.9;;;6.4;;
40012;SDS011;37387;42.672;23.334;2022-10-31T06:26:44;10.9;;;6.6;;
40012;SDS011;37387;42.672;23.334;2022-10-31T06:27:44;12.5;;;6.8;;
40012;SDS011;37387;42.672;23.334;2022-10-31T06:28:44;10.9;;;5.6;;
40012;SDS011;37387;42.672;23.334;2022-10-31T06:29:44;9.8;;;5.8;;
40012;SDS011;37387;42.672;23.334;2022-10-31T06:30:44;9.8;;;6.0;;
40012;SDS011;37387;42.672;23.334;2022-10-31T06:31:44;10.2;;;6.1;;
40012;SDS011;37387;42.672;23.334;2022-10-31T06:34:44;11.2;;;5.5;;
40012;SDS011;37387;42.672;23.334;2022-10-31T06:35:45;8.5;;;6.0;;
40012;SDS011;37387;42.672;23.334;2022-10-31T06:36:45;12.4;;;5.8;;
40012;SDS011;37387;42.672;23.334;2022-10-31T06:38:45;9.4;;;5.6;;
40012;SDS011;37387;42.672;23.334;2022-10-31T06:39:45;9.1;;;5.7;;
40012;SDS011;37387;42.672;23.334;2022-10-31T06:40:45;10.5;;;7.1;;
40012;SDS011;37387;42.672;23.334;2022-10-31T06:41:46;12.5;;;6.9;;
40012;SDS011;37387;42.672;23.334;2022-10-31T06:42:45;13.3;;;7.4;;
40012;SDS011;37387;42.672;23.334;2022-10-31T06:43:46;12.1;;;7.0;;
40012;SDS011;37387;42.672;23.334;2022-10-31T06:44:46;12.6;;;7.7;;
40012;SDS011;37387;42.672;23.334;2022-10-31T06:45:46;12.6;;;7.1;;
40012;SDS011;37387;42.672;23.334;2022-10-31T06:46:46;12.3;;;17.6;;
40012;SDS011;37387;42.672;23.334;2022-10-31T06:47:49;23.8;;;14.3;;
40012;SDS011;37387;42.672;23.334;2022-10-31T06:48:46;23.8;;;8.7;;
40012;SDS011;37387;42.672;23.334;2022-10-31T06:49:46;12.9;;;7.1;;
40012;SDS011;37387;42.672;23.334;2022-10-31T06:50:46;12.9;;;6.9;;
40012;SDS011;37387;42.672;23.334;2022-10-31T06:51:46;11.2;;;6.4;;
40012;SDS011;37387;42.672;23.334;2022-10-31T06:52:49;10.2;;;6.2;;
40012;SDS011;37387;42.672;23.334;2022-10-31T06:53:47;11.1;;;6.9;;
40012;SDS011;37387;42.672;23.334;2022-10-31T06:54:47;11.5;;;6.7;;
40012;SDS011;37387;42.672;23.334;2022-10-31T06:55:47;11.5;;;7.4;;
40012;SDS011;37387;42.672;23.334;2022-10-31T06:56:47;13.3;;;7.9;;
40012;SDS011;37387;42.672;23.334;2022-10-31T06:57:50;13.3;;;7.4;;
40012;SDS011;37387;42.672;23.334;2022-10-31T06:58:47;12.7;;;7.5;;